SWA2812 KLAS-KSTS
Flight info
| Callsign | SWA2812 |
|---|---|
| Flight time | 1h 14m |
| Altitude | 38000 |
| Route | JOHKR5 KENNO RUSME VNYRD1 |
| Aircraft | B738/M-SDE2E3FGHIRWXY/LB1 |
Departure
| Time | 2026-04-30 20:15 |
|---|---|
| Airport | Harry Reid International Airport (KLAS) |
Arrival
| Time | 2026-04-30 21:29 |
|---|---|
| Airport | Charles M. Schulz Sonoma County Airport (KSTS) |
| Time | Latitude | Longitude | Altitude | Speed | Heading |
|---|---|---|---|---|---|
| 2026-04-30 20:00 | 36.08287 | -115.15364 | 2119 ft | 0 kts | 109° |
| 2026-04-30 20:05 | 36.08288 | -115.15366 | 2119 ft | 2 kts | 109° |
| 2026-04-30 20:06 | 36.08297 | -115.15396 | 2128 ft | 4 kts | 109° |
| 2026-04-30 20:06 | 36.08304 | -115.15428 | 2121 ft | 4 kts | 104° |
| 2026-04-30 20:06 | 36.08311 | -115.15460 | 2122 ft | 4 kts | 111° |
| 2026-04-30 20:06 | 36.08323 | -115.15488 | 2123 ft | 4 kts | 136° |
| 2026-04-30 20:07 | 36.08335 | -115.15499 | 2122 ft | 1 kts | 152° |
| 2026-04-30 20:07 | 36.08337 | -115.15500 | 2122 ft | 0 kts | 152° |
| 2026-04-30 20:09 | 36.08326 | -115.15493 | 2122 ft | 6 kts | 148° |
| 2026-04-30 20:10 | 36.08162 | -115.15469 | 2125 ft | 17 kts | 255° |
| 2026-04-30 20:10 | 36.08161 | -115.15611 | 2124 ft | 16 kts | 271° |
| 2026-04-30 20:10 | 36.08159 | -115.15748 | 2125 ft | 16 kts | 270° |
| 2026-04-30 20:11 | 36.08161 | -115.16271 | 2119 ft | 35 kts | 272° |
| 2026-04-30 20:11 | 36.08128 | -115.16536 | 2123 ft | 30 kts | 225° |
| 2026-04-30 20:11 | 36.07954 | -115.16643 | 2124 ft | 27 kts | 201° |
| 2026-04-30 20:12 | 36.07636 | -115.16827 | 2122 ft | 24 kts | 207° |
| 2026-04-30 20:12 | 36.07513 | -115.16915 | 2122 ft | 14 kts | 232° |
| 2026-04-30 20:12 | 36.07555 | -115.17008 | 2123 ft | 14 kts | 352° |
| 2026-04-30 20:13 | 36.07601 | -115.16995 | 2122 ft | 0 kts | 25° |
| 2026-04-30 20:14 | 36.07681 | -115.16948 | 2124 ft | 45 kts | 25° |
| 2026-04-30 20:14 | 36.08186 | -115.16663 | 2121 ft | 113 kts | 24° |
| 2026-04-30 20:14 | 36.09071 | -115.16151 | 2126 ft | 166 kts | 24° |
| 2026-04-30 20:15 | 36.10196 | -115.15499 | 2577 ft | 180 kts | 25° |
| 2026-04-30 20:15 | 36.11305 | -115.14892 | 3554 ft | 176 kts | 19° |
| 2026-04-30 20:15 | 36.12581 | -115.15004 | 3907 ft | 202 kts | 333° |
| 2026-04-30 20:15 | 36.13730 | -115.16198 | 4063 ft | 230 kts | 317° |
| 2026-04-30 20:16 | 36.14604 | -115.17918 | 4362 ft | 249 kts | 291° |
| 2026-04-30 20:16 | 36.14788 | -115.20108 | 4813 ft | 262 kts | 264° |
| 2026-04-30 20:16 | 36.14169 | -115.22241 | 5322 ft | 266 kts | 241° |
| 2026-04-30 20:16 | 36.13208 | -115.24171 | 5910 ft | 267 kts | 239° |
| 2026-04-30 20:17 | 36.12219 | -115.26114 | 6535 ft | 265 kts | 239° |
| 2026-04-30 20:17 | 36.11260 | -115.28118 | 6866 ft | 279 kts | 249° |
| 2026-04-30 20:17 | 36.10984 | -115.30495 | 7224 ft | 283 kts | 281° |
| 2026-04-30 20:17 | 36.11335 | -115.32902 | 8099 ft | 280 kts | 284° |
| 2026-04-30 20:18 | 36.11719 | -115.35290 | 8774 ft | 287 kts | 284° |
| 2026-04-30 20:18 | 36.12094 | -115.37685 | 9515 ft | 289 kts | 282° |
| 2026-04-30 20:18 | 36.12478 | -115.40135 | 10258 ft | 289 kts | 284° |
| 2026-04-30 20:18 | 36.12888 | -115.42643 | 10596 ft | 309 kts | 283° |
| 2026-04-30 20:19 | 36.13364 | -115.45325 | 10778 ft | 330 kts | 285° |
| 2026-04-30 20:19 | 36.13690 | -115.47244 | 10892 ft | 344 kts | 284° |
| 2026-04-30 20:19 | 36.14321 | -115.51194 | 11340 ft | 363 kts | 282° |
| 2026-04-30 20:19 | 36.14795 | -115.54259 | 12149 ft | 360 kts | 283° |
| 2026-04-30 20:20 | 36.15266 | -115.57313 | 12886 ft | 364 kts | 282° |
| 2026-04-30 20:20 | 36.15742 | -115.60391 | 13738 ft | 362 kts | 282° |
| 2026-04-30 20:20 | 36.16057 | -115.62420 | 14177 ft | 366 kts | 282° |
| 2026-04-30 20:20 | 36.16543 | -115.65538 | 14686 ft | 373 kts | 282° |
| 2026-04-30 20:21 | 36.17044 | -115.68738 | 15100 ft | 383 kts | 282° |
| 2026-04-30 20:21 | 36.17552 | -115.71997 | 15748 ft | 386 kts | 282° |
| 2026-04-30 20:21 | 36.18061 | -115.75265 | 16486 ft | 387 kts | 282° |
| 2026-04-30 20:21 | 36.18570 | -115.78543 | 17154 ft | 389 kts | 282° |
| 2026-04-30 20:22 | 36.19082 | -115.81845 | 17798 ft | 392 kts | 282° |
| 2026-04-30 20:22 | 36.19597 | -115.85174 | 18385 ft | 395 kts | 283° |
| 2026-04-30 20:22 | 36.20122 | -115.88576 | 18938 ft | 398 kts | 283° |
| 2026-04-30 20:22 | 36.20637 | -115.91915 | 19396 ft | 402 kts | 283° |
| 2026-04-30 20:23 | 36.21163 | -115.95331 | 19913 ft | 405 kts | 283° |
| 2026-04-30 20:23 | 36.21692 | -115.98777 | 20411 ft | 409 kts | 283° |
| 2026-04-30 20:23 | 36.22225 | -116.02251 | 20905 ft | 411 kts | 283° |
| 2026-04-30 20:23 | 36.22758 | -116.05739 | 21417 ft | 414 kts | 283° |
| 2026-04-30 20:24 | 36.23294 | -116.09248 | 21895 ft | 417 kts | 283° |
| 2026-04-30 20:24 | 36.23833 | -116.12792 | 22361 ft | 420 kts | 283° |
| 2026-04-30 20:24 | 36.24375 | -116.16356 | 22819 ft | 422 kts | 283° |
| 2026-04-30 20:24 | 36.24920 | -116.19947 | 23265 ft | 425 kts | 283° |
| 2026-04-30 20:25 | 36.26014 | -116.27182 | 24051 ft | 430 kts | 283° |
| 2026-04-30 20:25 | 36.26565 | -116.30835 | 24459 ft | 432 kts | 283° |
| 2026-04-30 20:26 | 36.27776 | -116.38131 | 25200 ft | 433 kts | 291° |
| 2026-04-30 20:26 | 36.30638 | -116.44635 | 25948 ft | 430 kts | 310° |
| 2026-04-30 20:26 | 36.32662 | -116.47285 | 26320 ft | 430 kts | 317° |
| 2026-04-30 20:27 | 36.37032 | -116.52397 | 26926 ft | 435 kts | 317° |
| 2026-04-30 20:27 | 36.41468 | -116.57566 | 27566 ft | 438 kts | 317° |
| 2026-04-30 20:28 | 36.45896 | -116.62805 | 28209 ft | 441 kts | 317° |
| 2026-04-30 20:28 | 36.50446 | -116.67952 | 28901 ft | 442 kts | 318° |
| 2026-04-30 20:29 | 36.54972 | -116.73066 | 29884 ft | 437 kts | 317° |
| 2026-04-30 20:30 | 36.61694 | -116.80734 | 30908 ft | 437 kts | 317° |
| 2026-04-30 20:30 | 36.68399 | -116.88392 | 31976 ft | 434 kts | 317° |
| 2026-04-30 20:31 | 36.75285 | -116.95583 | 32980 ft | 434 kts | 329° |
| 2026-04-30 20:32 | 36.83331 | -117.00741 | 33943 ft | 433 kts | 331° |
| 2026-04-30 20:32 | 36.88661 | -117.04155 | 34518 ft | 430 kts | 330° |
| 2026-04-30 20:33 | 36.91319 | -117.05872 | 34734 ft | 430 kts | 330° |
| 2026-04-30 20:33 | 36.96635 | -117.09325 | 35232 ft | 429 kts | 330° |
| 2026-04-30 20:33 | 36.99282 | -117.11046 | 35497 ft | 428 kts | 330° |
| 2026-04-30 20:34 | 37.04565 | -117.14492 | 36020 ft | 427 kts | 330° |
| 2026-04-30 20:34 | 37.09833 | -117.17929 | 36475 ft | 427 kts | 330° |
| 2026-04-30 20:35 | 37.12463 | -117.19646 | 36737 ft | 426 kts | 330° |
| 2026-04-30 20:35 | 37.15087 | -117.21361 | 36987 ft | 425 kts | 330° |
| 2026-04-30 20:35 | 37.20337 | -117.24796 | 37425 ft | 425 kts | 329° |
| 2026-04-30 20:36 | 37.22948 | -117.26505 | 37723 ft | 422 kts | 329° |
| 2026-04-30 20:36 | 37.25547 | -117.28210 | 37943 ft | 421 kts | 329° |
| 2026-04-30 20:37 | 37.32904 | -117.34177 | 38006 ft | 422 kts | 317° |
| 2026-04-30 20:37 | 37.37318 | -117.39008 | 37984 ft | 419 kts | 317° |
| 2026-04-30 20:38 | 37.41737 | -117.43778 | 37981 ft | 417 kts | 317° |
| 2026-04-30 20:38 | 37.46132 | -117.48514 | 37971 ft | 415 kts | 314° |
| 2026-04-30 20:39 | 37.49207 | -117.54532 | 37991 ft | 411 kts | 291° |
| 2026-04-30 20:39 | 37.49948 | -117.58004 | 37978 ft | 412 kts | 278° |
| 2026-04-30 20:40 | 37.50716 | -117.68868 | 37991 ft | 415 kts | 276° |
| 2026-04-30 20:40 | 37.51214 | -117.76139 | 37979 ft | 418 kts | 277° |
| 2026-04-30 20:41 | 37.52005 | -117.87115 | 37966 ft | 421 kts | 277° |
| 2026-04-30 20:41 | 37.52540 | -117.94477 | 37963 ft | 422 kts | 277° |
| 2026-04-30 20:42 | 37.53073 | -118.01850 | 37971 ft | 423 kts | 277° |
| 2026-04-30 20:43 | 37.53861 | -118.12888 | 37992 ft | 423 kts | 277° |
| 2026-04-30 20:43 | 37.54380 | -118.20258 | 38010 ft | 422 kts | 277° |
| 2026-04-30 20:44 | 37.55150 | -118.31293 | 38017 ft | 421 kts | 277° |
| 2026-04-30 20:45 | 37.56157 | -118.45947 | 38009 ft | 418 kts | 277° |
| 2026-04-30 20:45 | 37.56650 | -118.53226 | 37998 ft | 416 kts | 277° |
| 2026-04-30 20:46 | 37.57377 | -118.64082 | 38106 ft | 413 kts | 277° |
| 2026-04-30 20:46 | 37.57616 | -118.67687 | 38128 ft | 413 kts | 277° |
| 2026-04-30 20:47 | 37.58327 | -118.78495 | 38164 ft | 412 kts | 277° |
| 2026-04-30 20:48 | 37.59026 | -118.89289 | 38153 ft | 411 kts | 276° |
| 2026-04-30 20:48 | 37.59485 | -118.96457 | 38159 ft | 412 kts | 277° |
| 2026-04-30 20:49 | 37.59943 | -119.03666 | 38119 ft | 412 kts | 277° |
| 2026-04-30 20:49 | 37.60170 | -119.07274 | 38002 ft | 413 kts | 277° |
| 2026-04-30 20:50 | 37.60622 | -119.14497 | 38007 ft | 413 kts | 276° |
| 2026-04-30 20:50 | 37.61069 | -119.21726 | 38009 ft | 414 kts | 276° |
| 2026-04-30 20:51 | 37.61513 | -119.28969 | 37998 ft | 414 kts | 276° |
| 2026-04-30 20:51 | 37.62171 | -119.39845 | 38002 ft | 415 kts | 276° |
| 2026-04-30 20:52 | 37.62605 | -119.47103 | 38016 ft | 414 kts | 276° |
| 2026-04-30 20:53 | 37.63246 | -119.57972 | 38011 ft | 414 kts | 276° |
| 2026-04-30 20:53 | 37.63668 | -119.65203 | 38011 ft | 413 kts | 276° |
| 2026-04-30 20:54 | 37.64291 | -119.76015 | 38003 ft | 411 kts | 276° |
| 2026-04-30 20:55 | 37.63893 | -119.86754 | 37992 ft | 414 kts | 264° |
| 2026-04-30 20:55 | 37.62992 | -119.93952 | 37539 ft | 419 kts | 264° |
| 2026-04-30 20:56 | 37.62108 | -120.01177 | 36484 ft | 415 kts | 264° |
| 2026-04-30 20:56 | 37.61673 | -120.04779 | 35884 ft | 415 kts | 264° |
| 2026-04-30 20:56 | 37.60803 | -120.12014 | 34593 ft | 418 kts | 264° |
| 2026-04-30 20:57 | 37.60366 | -120.15642 | 33969 ft | 420 kts | 264° |
| 2026-04-30 20:57 | 37.59925 | -120.19295 | 33207 ft | 422 kts | 264° |
| 2026-04-30 20:57 | 37.59481 | -120.22962 | 32488 ft | 424 kts | 264° |
| 2026-04-30 20:58 | 37.58593 | -120.30244 | 31495 ft | 417 kts | 264° |
| 2026-04-30 20:58 | 37.58152 | -120.33846 | 31014 ft | 414 kts | 264° |
| 2026-04-30 20:58 | 37.57713 | -120.37427 | 30546 ft | 412 kts | 264° |
| 2026-04-30 20:58 | 37.57275 | -120.40986 | 30059 ft | 410 kts | 264° |
| 2026-04-30 20:59 | 37.56406 | -120.48041 | 29006 ft | 404 kts | 264° |
| 2026-04-30 20:59 | 37.55975 | -120.51526 | 28506 ft | 400 kts | 264° |
| 2026-04-30 21:00 | 37.55129 | -120.58351 | 27565 ft | 393 kts | 264° |
| 2026-04-30 21:00 | 37.54284 | -120.65109 | 26650 ft | 388 kts | 264° |
| 2026-04-30 21:01 | 37.53437 | -120.71859 | 25779 ft | 396 kts | 264° |
| 2026-04-30 21:01 | 37.53008 | -120.75269 | 25405 ft | 392 kts | 264° |
| 2026-04-30 21:01 | 37.52154 | -120.82016 | 24525 ft | 387 kts | 264° |
| 2026-04-30 21:02 | 37.51731 | -120.85357 | 24083 ft | 385 kts | 264° |
| 2026-04-30 21:02 | 37.51309 | -120.88681 | 23619 ft | 384 kts | 264° |
| 2026-04-30 21:02 | 37.51030 | -120.90875 | 23277 ft | 383 kts | 264° |
| 2026-04-30 21:02 | 37.50610 | -120.94177 | 22788 ft | 381 kts | 264° |
| 2026-04-30 21:03 | 37.50191 | -120.97460 | 22300 ft | 378 kts | 264° |
| 2026-04-30 21:03 | 37.49775 | -121.00717 | 21849 ft | 376 kts | 264° |
| 2026-04-30 21:03 | 37.49360 | -121.03957 | 21408 ft | 373 kts | 264° |
| 2026-04-30 21:03 | 37.48946 | -121.07176 | 20969 ft | 371 kts | 264° |
| 2026-04-30 21:04 | 37.48536 | -121.10369 | 20538 ft | 369 kts | 264° |
| 2026-04-30 21:04 | 37.48128 | -121.13546 | 20108 ft | 367 kts | 264° |
| 2026-04-30 21:04 | 37.47309 | -121.19869 | 19261 ft | 364 kts | 264° |
| 2026-04-30 21:05 | 37.46902 | -121.23001 | 18908 ft | 361 kts | 264° |
| 2026-04-30 21:05 | 37.46493 | -121.26112 | 18635 ft | 360 kts | 264° |
| 2026-04-30 21:05 | 37.46078 | -121.29271 | 18418 ft | 370 kts | 263° |
| 2026-04-30 21:05 | 37.45655 | -121.32495 | 18132 ft | 375 kts | 263° |
| 2026-04-30 21:06 | 37.45228 | -121.35720 | 17843 ft | 372 kts | 263° |
| 2026-04-30 21:06 | 37.44806 | -121.38908 | 17579 ft | 368 kts | 263° |
| 2026-04-30 21:06 | 37.44387 | -121.42070 | 17320 ft | 364 kts | 263° |
| 2026-04-30 21:06 | 37.43973 | -121.45196 | 17086 ft | 362 kts | 263° |
| 2026-04-30 21:07 | 37.43558 | -121.48314 | 16834 ft | 361 kts | 263° |
| 2026-04-30 21:07 | 37.43149 | -121.51428 | 16606 ft | 359 kts | 265° |
| 2026-04-30 21:07 | 37.43143 | -121.54540 | 16350 ft | 355 kts | 281° |
| 2026-04-30 21:07 | 37.43762 | -121.57514 | 16129 ft | 350 kts | 294° |
| 2026-04-30 21:08 | 37.44869 | -121.60233 | 15907 ft | 349 kts | 301° |
| 2026-04-30 21:08 | 37.46074 | -121.62887 | 15629 ft | 348 kts | 301° |
| 2026-04-30 21:08 | 37.47282 | -121.65517 | 15439 ft | 347 kts | 301° |
| 2026-04-30 21:08 | 37.48469 | -121.68118 | 15194 ft | 348 kts | 301° |
| 2026-04-30 21:09 | 37.49670 | -121.70765 | 14963 ft | 348 kts | 301° |
| 2026-04-30 21:09 | 37.50868 | -121.73422 | 14733 ft | 349 kts | 301° |
| 2026-04-30 21:09 | 37.52064 | -121.76085 | 14475 ft | 350 kts | 301° |
| 2026-04-30 21:09 | 37.53256 | -121.78749 | 14236 ft | 349 kts | 301° |
| 2026-04-30 21:10 | 37.54442 | -121.81405 | 13987 ft | 347 kts | 300° |
| 2026-04-30 21:10 | 37.55622 | -121.84050 | 13750 ft | 345 kts | 300° |
| 2026-04-30 21:10 | 37.56795 | -121.86684 | 13490 ft | 343 kts | 300° |
| 2026-04-30 21:10 | 37.57960 | -121.89301 | 13259 ft | 342 kts | 300° |
| 2026-04-30 21:11 | 37.59118 | -121.91907 | 13026 ft | 340 kts | 300° |
| 2026-04-30 21:11 | 37.60271 | -121.94501 | 12817 ft | 337 kts | 300° |
| 2026-04-30 21:11 | 37.61420 | -121.97083 | 12557 ft | 337 kts | 300° |
| 2026-04-30 21:11 | 37.62560 | -121.99649 | 12321 ft | 335 kts | 301° |
| 2026-04-30 21:12 | 37.63695 | -122.02215 | 12095 ft | 334 kts | 300° |
| 2026-04-30 21:12 | 37.64828 | -122.04778 | 11875 ft | 333 kts | 300° |
| 2026-04-30 21:12 | 37.65958 | -122.07335 | 11641 ft | 334 kts | 300° |
| 2026-04-30 21:12 | 37.67088 | -122.09890 | 11417 ft | 334 kts | 300° |
| 2026-04-30 21:13 | 37.68219 | -122.12450 | 11190 ft | 334 kts | 300° |
| 2026-04-30 21:13 | 37.69344 | -122.14997 | 10964 ft | 329 kts | 301° |
| 2026-04-30 21:13 | 37.70446 | -122.17493 | 10745 ft | 322 kts | 300° |
| 2026-04-30 21:13 | 37.71524 | -122.19937 | 10523 ft | 315 kts | 300° |
| 2026-04-30 21:14 | 37.72600 | -122.22317 | 10311 ft | 309 kts | 304° |
| 2026-04-30 21:14 | 37.73980 | -122.24356 | 10097 ft | 302 kts | 316° |
| 2026-04-30 21:14 | 37.75465 | -122.26168 | 10030 ft | 291 kts | 317° |
| 2026-04-30 21:14 | 37.76905 | -122.27906 | 9874 ft | 284 kts | 317° |
| 2026-04-30 21:15 | 37.78339 | -122.29647 | 9539 ft | 284 kts | 316° |
| 2026-04-30 21:15 | 37.79748 | -122.31376 | 9303 ft | 280 kts | 317° |
| 2026-04-30 21:15 | 37.81130 | -122.33086 | 9102 ft | 275 kts | 316° |
| 2026-04-30 21:15 | 37.82469 | -122.34752 | 8907 ft | 273 kts | 316° |
| 2026-04-30 21:16 | 37.83813 | -122.36431 | 8717 ft | 271 kts | 316° |
| 2026-04-30 21:16 | 37.85146 | -122.38099 | 8526 ft | 269 kts | 316° |
| 2026-04-30 21:16 | 37.86477 | -122.39769 | 8347 ft | 270 kts | 316° |
| 2026-04-30 21:16 | 37.87817 | -122.41451 | 8167 ft | 273 kts | 316° |
| 2026-04-30 21:17 | 37.89173 | -122.43156 | 7980 ft | 275 kts | 315° |
| 2026-04-30 21:17 | 37.90529 | -122.44861 | 7777 ft | 274 kts | 316° |
| 2026-04-30 21:17 | 37.91875 | -122.46555 | 7585 ft | 272 kts | 315° |
| 2026-04-30 21:17 | 37.93216 | -122.48244 | 7396 ft | 271 kts | 315° |
| 2026-04-30 21:18 | 37.94552 | -122.49930 | 7216 ft | 270 kts | 315° |
| 2026-04-30 21:18 | 37.95916 | -122.51560 | 7019 ft | 269 kts | 325° |
| 2026-04-30 21:18 | 37.97582 | -122.52609 | 6834 ft | 266 kts | 339° |
| 2026-04-30 21:18 | 37.99303 | -122.53473 | 6648 ft | 266 kts | 339° |
| 2026-04-30 21:19 | 38.01043 | -122.54354 | 6461 ft | 266 kts | 338° |
| 2026-04-30 21:19 | 38.02803 | -122.55258 | 6264 ft | 266 kts | 338° |
| 2026-04-30 21:19 | 38.04490 | -122.56133 | 6075 ft | 265 kts | 338° |
| 2026-04-30 21:19 | 38.06289 | -122.57074 | 5877 ft | 264 kts | 338° |
| 2026-04-30 21:20 | 38.07987 | -122.57966 | 5691 ft | 263 kts | 338° |
| 2026-04-30 21:20 | 38.09676 | -122.58855 | 5514 ft | 263 kts | 338° |
| 2026-04-30 21:20 | 38.11361 | -122.59745 | 5331 ft | 262 kts | 338° |
| 2026-04-30 21:20 | 38.13038 | -122.60637 | 5150 ft | 260 kts | 338° |
| 2026-04-30 21:21 | 38.14701 | -122.61524 | 4967 ft | 258 kts | 337° |
| 2026-04-30 21:21 | 38.16348 | -122.62420 | 4804 ft | 257 kts | 338° |
| 2026-04-30 21:21 | 38.19596 | -122.64107 | 4425 ft | 242 kts | 338° |
| 2026-04-30 21:22 | 38.21105 | -122.64908 | 4304 ft | 229 kts | 338° |
| 2026-04-30 21:22 | 38.25289 | -122.67158 | 3798 ft | 199 kts | 338° |
| 2026-04-30 21:23 | 38.26516 | -122.67818 | 3545 ft | 186 kts | 338° |
| 2026-04-30 21:23 | 38.27669 | -122.68438 | 3265 ft | 177 kts | 338° |
| 2026-04-30 21:23 | 38.29953 | -122.69665 | 3041 ft | 181 kts | 338° |
| 2026-04-30 21:24 | 38.31105 | -122.70285 | 3009 ft | 178 kts | 337° |
| 2026-04-30 21:24 | 38.32246 | -122.70899 | 3005 ft | 179 kts | 338° |
| 2026-04-30 21:24 | 38.33402 | -122.71521 | 2994 ft | 178 kts | 338° |
| 2026-04-30 21:24 | 38.34540 | -122.72132 | 3004 ft | 178 kts | 337° |
| 2026-04-30 21:25 | 38.36832 | -122.73365 | 2912 ft | 180 kts | 337° |
| 2026-04-30 21:25 | 38.37966 | -122.73975 | 2673 ft | 171 kts | 337° |
| 2026-04-30 21:25 | 38.39004 | -122.74533 | 2502 ft | 153 kts | 336° |
| 2026-04-30 21:26 | 38.40932 | -122.75570 | 2093 ft | 150 kts | 335° |
| 2026-04-30 21:26 | 38.41894 | -122.76087 | 1887 ft | 150 kts | 335° |
| 2026-04-30 21:27 | 38.43815 | -122.77119 | 1489 ft | 149 kts | 334° |
| 2026-04-30 21:27 | 38.44755 | -122.77625 | 1277 ft | 147 kts | 335° |
| 2026-04-30 21:27 | 38.45701 | -122.78133 | 1094 ft | 148 kts | 334° |
| 2026-04-30 21:28 | 38.47588 | -122.79149 | 710 ft | 146 kts | 335° |
| 2026-04-30 21:28 | 38.48513 | -122.79645 | 530 ft | 143 kts | 335° |
| 2026-04-30 21:28 | 38.50344 | -122.80630 | 160 ft | 142 kts | 335° |
| 2026-04-30 21:29 | 38.51141 | -122.81066 | 123 ft | 76 kts | 338° |
| 2026-04-30 21:29 | 38.51426 | -122.81065 | 125 ft | 13 kts | 113° |
| 2026-04-30 21:30 | 38.51274 | -122.80965 | 122 ft | 12 kts | 154° |
| 2026-04-30 21:31 | 38.51094 | -122.80813 | 124 ft | 10 kts | 83° |
| 2026-04-30 21:31 | 38.50989 | -122.80722 | 128 ft | 9 kts | 101° |
| 2026-04-30 21:32 | 38.51006 | -122.80681 | 128 ft | 0 kts | 62° |